createdAt,value
2023-02-06T00:00:48.702Z,101530.47
2023-02-06T00:03:36.347Z,101522.69
2023-02-06T00:06:24.347Z,101497.47
2023-02-06T00:09:14.572Z,101496.25
2023-02-06T00:12:04.547Z,101517.81
2023-02-06T00:14:52.214Z,101518.44
2023-02-06T00:17:48.157Z,101520.31
2023-02-06T00:20:36.909Z,101512.31
2023-02-06T00:23:24.624Z,101490.53
2023-02-06T00:26:12.486Z,101526.78
2023-02-06T00:29:00.284Z,101490.59
2023-02-06T00:31:48.003Z,101527.81
2023-02-06T00:34:35.661Z,101533.13
2023-02-06T00:37:23.502Z,101530.44
2023-02-06T00:40:11.702Z,101529.22
2023-02-06T00:42:59.460Z,101515.47
2023-02-06T00:45:58.116Z,101510.91
2023-02-06T00:48:45.865Z,101541.91
2023-02-06T00:51:33.656Z,101543.84
2023-02-06T00:54:21.270Z,101547.25
2023-02-06T00:57:08.964Z,101564.25
2023-02-06T00:59:56.714Z,101510.28
2023-02-06T01:02:46.659Z,101556.13
2023-02-06T01:05:35.362Z,101558.09
2023-02-06T01:08:23.298Z,101569.34
2023-02-06T01:11:27.806Z,101572.41
2023-02-06T01:14:28.228Z,101547.94
2023-02-06T01:17:39.203Z,101580.19
2023-02-06T01:20:26.873Z,101574.28
2023-02-06T01:23:14.505Z,101558.50
2023-02-06T01:26:10.846Z,101577.13
2023-02-06T01:28:58.658Z,101554.94
2023-02-06T01:31:46.392Z,101565.09
2023-02-06T01:34:34.098Z,101549.03
2023-02-06T01:37:24.964Z,101540.38
2023-02-06T01:40:16.037Z,101571.22
2023-02-06T01:43:03.846Z,101579.47
2023-02-06T01:45:51.768Z,101575.81
2023-02-06T01:48:47.770Z,101559.97
2023-02-06T01:51:35.980Z,101537.88
2023-02-06T01:54:24.396Z,101574.66
2023-02-06T01:57:13.749Z,101567.84
2023-02-06T02:00:06.842Z,101582.97
2023-02-06T02:03:01.691Z,101595.00
2023-02-06T02:05:51.264Z,101577.41
2023-02-06T02:08:48.543Z,101580.09
2023-02-06T02:11:42.180Z,101591.03
2023-02-06T02:14:30.404Z,101589.59
2023-02-06T02:17:45.794Z,101588.56
2023-02-06T02:21:15.861Z,101588.03
